Time;durP1;ratioP1;P1;durP2;ratioP2;P2;SDS_P1;SDS_P2;PMS_P1;PMS_P2;Temp;Humidity;BMP_temperature;BMP_pressure;BME280_temperature;BME280_humidity;BME280_pressure;Samples;Min_cycle;Max_cycle;Signal;HPM_P1;HPM_P2
2024/03/03 00:00:13;;;;;;;16.45;9.90;;;6.80;99.90;;;;;;5021023;28;20301;-66
2024/03/03 00:02:59;;;;;;;20.33;10.73;;;6.80;99.90;;;;;;5011802;28;20041;-66
2024/03/03 00:05:45;;;;;;;19.25;10.95;;;6.80;99.90;;;;;;5022043;28;20499;-66
2024/03/03 00:08:30;;;;;;;17.20;9.67;;;6.80;99.90;;;;;;5022686;28;20148;-66
2024/03/03 00:11:16;;;;;;;19.15;10.38;;;6.80;99.90;;;;;;5014452;28;20049;-66
2024/03/03 00:14:03;;;;;;;17.30;10.30;;;6.80;99.90;;;;;;5015635;28;20026;-66
2024/03/03 00:16:49;;;;;;;20.67;11.25;;;6.80;99.90;;;;;;5016154;28;20079;-66
2024/03/03 00:19:34;;;;;;;20.77;11.02;;;6.70;99.90;;;;;;5006944;28;20796;-66
2024/03/03 00:22:21;;;;;;;20.77;9.25;;;6.70;99.90;;;;;;4998594;28;20117;-66
2024/03/03 00:25:07;;;;;;;16.00;9.13;;;6.70;99.90;;;;;;5001378;28;20031;-66
2024/03/03 00:27:53;;;;;;;16.95;9.25;;;6.70;99.90;;;;;;5003192;28;20042;-66
2024/03/03 00:30:39;;;;;;;14.50;8.45;;;6.60;99.90;;;;;;5002366;28;20541;-66
2024/03/03 00:33:25;;;;;;;18.80;8.83;;;6.60;99.90;;;;;;5008226;28;20542;-66
2024/03/03 00:36:11;;;;;;;19.98;9.60;;;6.60;99.90;;;;;;5010101;28;20318;-66
2024/03/03 00:38:57;;;;;;;15.10;8.67;;;6.60;99.90;;;;;;5011360;28;20037;-66
2024/03/03 00:41:42;;;;;;;15.18;8.13;;;6.60;99.90;;;;;;5012067;28;20069;-66
2024/03/03 00:44:28;;;;;;;13.95;7.60;;;6.60;99.90;;;;;;5015358;28;20531;-66
2024/03/03 00:47:14;;;;;;;16.02;9.05;;;6.50;99.90;;;;;;5013700;28;20187;-66
2024/03/03 00:50:00;;;;;;;20.13;9.48;;;6.50;99.90;;;;;;5016550;28;20029;-66
2024/03/03 00:52:46;;;;;;;18.00;10.27;;;6.50;99.90;;;;;;5009709;28;20190;-66
2024/03/03 00:55:33;;;;;;;18.45;10.02;;;6.60;99.90;;;;;;5017109;28;20542;-66
2024/03/03 00:58:20;;;;;;;15.88;9.85;;;6.50;99.90;;;;;;5015851;28;20049;-66
2024/03/03 01:01:06;;;;;;;20.52;10.60;;;6.50;99.90;;;;;;5012944;28;20076;-66
2024/03/03 01:03:51;;;;;;;17.27;9.95;;;6.50;99.90;;;;;;5017566;28;20056;-66
2024/03/03 01:06:37;;;;;;;20.55;10.80;;;6.50;99.90;;;;;;5011771;28;20069;-66
2024/03/03 01:09:23;;;;;;;17.80;10.10;;;6.50;99.90;;;;;;5007287;28;20048;-66
2024/03/03 01:12:09;;;;;;;16.23;9.23;;;6.40;99.90;;;;;;5012806;28;20038;-66
2024/03/03 01:14:55;;;;;;;17.30;9.40;;;6.40;99.90;;;;;;5015004;28;20030;-66
2024/03/03 01:17:41;;;;;;;20.27;9.32;;;6.40;99.90;;;;;;5009898;28;20069;-66
2024/03/03 01:20:27;;;;;;;17.50;8.98;;;6.40;99.90;;;;;;5016651;28;20038;-66
2024/03/03 01:23:14;;;;;;;14.70;8.63;;;6.40;99.90;;;;;;5013282;28;20044;-66
2024/03/03 01:26:00;;;;;;;14.88;8.65;;;6.30;99.90;;;;;;5011596;28;20048;-66
2024/03/03 01:28:45;;;;;;;17.27;8.80;;;6.30;99.90;;;;;;5005638;28;20125;-66
2024/03/03 01:31:32;;;;;;;16.83;8.93;;;6.20;99.90;;;;;;5008031;28;20491;-66
2024/03/03 01:34:18;;;;;;;13.80;8.48;;;6.20;99.90;;;;;;5008806;28;20104;-66
2024/03/03 01:37:04;;;;;;;16.02;8.75;;;6.20;99.90;;;;;;5008401;28;20095;-66
2024/03/03 01:39:50;;;;;;;14.10;8.10;;;6.20;99.90;;;;;;5023179;28;20033;-66
2024/03/03 01:42:35;;;;;;;13.15;7.95;;;6.20;99.90;;;;;;5012778;28;20041;-66
2024/03/03 01:45:22;;;;;;;17.25;7.93;;;6.30;99.90;;;;;;5020005;28;20554;-66
2024/03/03 01:48:09;;;;;;;17.10;8.48;;;6.20;99.90;;;;;;5014016;28;20025;-66
2024/03/03 01:50:55;;;;;;;14.33;8.30;;;6.20;99.90;;;;;;5006610;28;20030;-66
2024/03/03 01:53:45;;;;;;;14.25;8.27;;;6.20;99.90;;;;;;5015770;28;20291;-66
2024/03/03 01:56:32;;;;;;;16.48;8.35;;;6.30;99.90;;;;;;5011368;28;20542;-66
2024/03/03 01:59:19;;;;;;;14.65;8.13;;;6.40;99.90;;;;;;5014321;28;20029;-66
2024/03/03 02:02:05;;;;;;;15.48;8.23;;;6.40;99.90;;;;;;5015640;28;20038;-66
2024/03/03 02:04:51;;;;;;;14.45;8.57;;;6.40;99.90;;;;;;5010259;28;20026;-66
2024/03/03 02:07:37;;;;;;;12.25;7.53;;;6.40;99.90;;;;;;5012625;28;20103;-66
2024/03/03 02:10:23;;;;;;;18.10;8.37;;;6.40;99.90;;;;;;5014675;28;20029;-66
2024/03/03 02:13:09;;;;;;;16.50;7.38;;;6.30;99.90;;;;;;5012550;28;20483;-66
2024/03/03 02:15:55;;;;;;;15.82;8.40;;;6.30;99.90;;;;;;5015074;28;20719;-66
2024/03/03 02:18:41;;;;;;;15.07;8.60;;;6.30;99.90;;;;;;5013870;28;20037;-66
2024/03/03 02:21:27;;;;;;;13.43;7.72;;;6.40;99.90;;;;;;5013677;28;20079;-66
2024/03/03 02:24:13;;;;;;;15.15;8.80;;;6.40;99.90;;;;;;5016557;28;20037;-66
2024/03/03 02:26:59;;;;;;;16.52;8.52;;;6.40;99.90;;;;;;5011081;28;20041;-66
2024/03/03 02:29:45;;;;;;;14.50;8.38;;;6.50;99.90;;;;;;5019020;28;20034;-66
2024/03/03 02:32:31;;;;;;;24.25;9.15;;;6.50;99.90;;;;;;5010923;28;20045;-66
2024/03/03 02:35:17;;;;;;;14.65;8.98;;;6.60;99.90;;;;;;5010046;28;20026;-66
2024/03/03 02:38:03;;;;;;;15.40;8.20;;;6.60;99.90;;;;;;5016122;28;20100;-66
2024/03/03 02:40:49;;;;;;;17.73;8.90;;;6.60;99.90;;;;;;5011247;28;20084;-66
2024/03/03 02:43:35;;;;;;;16.25;8.63;;;6.50;99.90;;;;;;5015880;28;20499;-66
2024/03/03 02:46:20;;;;;;;16.70;8.33;;;6.60;99.90;;;;;;5010340;28;20053;-66
2024/03/03 02:49:06;;;;;;;17.42;8.45;;;6.60;99.90;;;;;;5009406;28;20044;-66
2024/03/03 02:51:54;;;;;;;14.48;8.20;;;6.60;99.90;;;;;;5015256;28;20034;-66
2024/03/03 02:54:40;;;;;;;14.00;8.02;;;6.60;99.90;;;;;;5011356;28;20033;-66
2024/03/03 02:57:26;;;;;;;14.63;7.70;;;6.60;99.90;;;;;;5010330;28;20034;-66
2024/03/03 03:00:12;;;;;;;14.65;7.95;;;6.60;99.90;;;;;;5012981;28;20403;-66
2024/03/03 03:02:58;;;;;;;14.43;8.73;;;6.60;99.90;;;;;;5011962;28;20041;-66
2024/03/03 03:05:44;;;;;;;15.18;7.93;;;6.60;99.90;;;;;;5017868;28;20127;-66
2024/03/03 03:08:30;;;;;;;16.92;9.25;;;6.50;99.90;;;;;;5012260;28;20069;-66
2024/03/03 03:11:16;;;;;;;18.85;8.40;;;6.50;99.90;;;;;;5009819;28;20030;-66
2024/03/03 03:14:02;;;;;;;17.88;8.95;;;6.50;99.90;;;;;;5019667;28;20057;-66
2024/03/03 03:16:48;;;;;;;18.30;8.55;;;6.50;99.90;;;;;;5012473;28;20041;-66
2024/03/03 03:19:33;;;;;;;13.88;8.48;;;6.50;99.90;;;;;;5012109;28;20045;-66
2024/03/03 03:22:20;;;;;;;19.60;9.18;;;6.50;99.90;;;;;;5010164;28;20123;-66
2024/03/03 03:25:06;;;;;;;20.48;8.80;;;6.50;99.90;;;;;;5015302;28;20033;-66
2024/03/03 03:27:52;;;;;;;16.85;8.95;;;6.40;99.90;;;;;;5007619;28;20033;-66
2024/03/03 03:30:38;;;;;;;15.40;8.50;;;6.40;99.90;;;;;;5016531;28;20025;-66
2024/03/03 03:33:24;;;;;;;17.77;8.25;;;6.30;99.90;;;;;;5018743;28;20375;-66
2024/03/03 03:36:10;;;;;;;21.58;9.57;;;6.20;99.90;;;;;;5017640;28;20033;-66
2024/03/03 03:38:56;;;;;;;19.67;10.73;;;6.30;99.90;;;;;;5017585;28;20101;-66
2024/03/03 03:41:46;;;;;;;14.15;8.38;;;6.20;99.90;;;;;;5013171;28;20045;-66
2024/03/03 03:44:32;;;;;;;19.08;8.45;;;6.20;99.90;;;;;;5010747;28;20127;-66
2024/03/03 03:47:17;;;;;;;18.02;9.35;;;6.20;99.90;;;;;;5016964;28;20120;-66
2024/03/03 03:50:04;;;;;;;17.50;9.30;;;6.20;99.90;;;;;;5014799;28;20038;-67
2024/03/03 03:52:50;;;;;;;17.45;9.57;;;6.10;99.90;;;;;;5011882;28;20021;-66
2024/03/03 03:55:36;;;;;;;13.80;7.68;;;6.10;99.90;;;;;;5019124;28;20096;-66
2024/03/03 03:58:22;;;;;;;12.05;6.55;;;6.00;99.90;;;;;;5017372;28;20111;-66
2024/03/03 04:01:08;;;;;;;15.80;8.88;;;5.90;99.90;;;;;;5022190;28;20632;-66
2024/03/03 04:03:55;;;;;;;18.33;7.97;;;5.90;99.90;;;;;;5011048;28;20046;-66
2024/03/03 04:06:40;;;;;;;;;;;5.70;99.90;;;;;;5016710;28;20033;-66
2024/03/03 04:09:26;;;;;;;15.13;8.13;;;5.60;99.90;;;;;;5020643;28;19986;-66
2024/03/03 04:12:12;;;;;;;15.10;8.35;;;5.60;99.90;;;;;;5015806;28;20065;-66
2024/03/03 04:14:58;;;;;;;15.87;8.03;;;5.50;99.90;;;;;;5016442;28;20069;-66
2024/03/03 04:17:44;;;;;;;19.67;9.15;;;5.40;99.90;;;;;;5019712;28;20508;-66
2024/03/03 04:20:31;;;;;;;15.35;8.38;;;5.30;99.90;;;;;;5016791;28;20471;-66
2024/03/03 04:23:17;;;;;;;16.40;8.70;;;5.30;99.90;;;;;;5019029;28;20022;-66
2024/03/03 04:26:05;;;;;;;15.27;9.07;;;5.30;99.90;;;;;;5016040;28;20064;-66
2024/03/03 04:28:51;;;;;;;17.10;9.20;;;5.40;99.90;;;;;;5009935;28;20117;-66
2024/03/03 04:31:43;;;;;;;16.50;9.77;;;5.40;99.90;;;;;;5018232;28;20450;-66
2024/03/03 04:34:29;;;;;;;16.95;9.63;;;5.40;99.90;;;;;;5017290;28;20088;-66
2024/03/03 04:37:15;;;;;;;21.48;10.68;;;5.40;99.90;;;;;;5019392;28;20704;-66
2024/03/03 04:40:01;;;;;;;18.33;9.57;;;5.50;99.90;;;;;;5014212;28;20029;-66
2024/03/03 04:42:47;;;;;;;21.02;10.38;;;5.60;99.90;;;;;;5013073;28;20512;-66
2024/03/03 04:45:33;;;;;;;22.63;11.65;;;5.60;99.90;;;;;;5015138;28;20574;-66
2024/03/03 04:48:20;;;;;;;20.20;9.60;;;5.60;99.90;;;;;;5014625;28;20499;-66
2024/03/03 04:51:09;;;;;;;;;;;5.60;99.90;;;;;;5015043;28;20042;-66
2024/03/03 04:53:55;;;;;;;19.15;9.35;;;5.50;99.90;;;;;;5014687;28;20421;-66
2024/03/03 04:56:41;;;;;;;18.92;9.75;;;5.40;99.90;;;;;;5013710;28;20034;-66
2024/03/03 04:59:27;;;;;;;19.60;10.17;;;5.40;99.90;;;;;;5010410;28;20056;-66
2024/03/03 05:02:12;;;;;;;21.10;9.63;;;5.40;99.90;;;;;;5019585;28;20069;-66
2024/03/03 05:04:58;;;;;;;22.52;11.18;;;5.40;99.90;;;;;;5011375;28;20033;-66
2024/03/03 05:07:44;;;;;;;19.98;10.20;;;5.30;99.90;;;;;;5016806;28;20707;-66
2024/03/03 05:10:30;;;;;;;27.20;11.90;;;5.30;99.90;;;;;;5012266;28;20068;-66
2024/03/03 05:13:16;;;;;;;25.38;12.52;;;5.20;99.90;;;;;;5024161;28;20037;-66
2024/03/03 05:16:02;;;;;;;20.00;11.23;;;5.20;99.90;;;;;;5010406;28;20038;-66
2024/03/03 05:18:48;;;;;;;17.47;9.17;;;5.10;99.90;;;;;;5022611;28;20108;-66
2024/03/03 05:21:35;;;;;;;23.48;11.40;;;5.10;99.90;;;;;;5012233;28;20649;-66
2024/03/03 05:24:21;;;;;;;;;;;5.10;99.90;;;;;;5018551;28;20049;-66
2024/03/03 05:27:07;;;;;;;22.25;10.30;;;5.10;99.90;;;;;;5016430;28;20285;-66
2024/03/03 05:29:53;;;;;;;18.52;10.18;;;5.00;99.90;;;;;;5013251;28;20033;-66
2024/03/03 05:32:39;;;;;;;20.53;10.90;;;5.00;99.90;;;;;;4997168;28;20101;-66
2024/03/03 05:35:25;;;;;;;18.42;9.35;;;4.90;99.90;;;;;;4994493;28;20029;-66
2024/03/03 05:38:11;;;;;;;20.85;10.85;;;4.90;99.90;;;;;;5001681;28;20514;-66
2024/03/03 05:40:57;;;;;;;19.13;10.73;;;4.90;99.90;;;;;;4995429;28;20116;-66
2024/03/03 05:43:42;;;;;;;19.05;10.18;;;4.90;99.90;;;;;;4999199;28;20295;-66
2024/03/03 05:46:28;;;;;;;18.80;9.85;;;4.80;99.90;;;;;;4997679;28;20037;-66
2024/03/03 05:49:15;;;;;;;21.05;9.85;;;4.70;99.90;;;;;;5003034;28;20034;-66
2024/03/03 05:52:01;;;;;;;;;;;4.60;99.90;;;;;;4995323;28;20030;-66
2024/03/03 05:54:47;;;;;;;16.30;8.35;;;4.70;99.90;;;;;;4999654;28;20555;-66
2024/03/03 05:57:33;;;;;;;17.30;9.47;;;4.50;99.90;;;;;;5001061;28;20052;-66
2024/03/03 06:00:19;;;;;;;20.25;9.73;;;4.40;99.90;;;;;;5004714;23;20382;-63
2024/03/03 06:03:05;;;;;;;17.97;9.97;;;4.30;99.90;;;;;;5000058;28;20046;-63
2024/03/03 06:05:51;;;;;;;17.63;9.57;;;4.30;99.90;;;;;;4990401;28;20050;-63
2024/03/03 06:08:45;;;;;;;21.13;10.35;;;4.30;99.90;;;;;;4994968;28;20069;-63
2024/03/03 06:11:31;;;;;;;18.83;10.00;;;4.40;99.90;;;;;;4992702;28;20112;-63
2024/03/03 06:14:16;;;;;;;22.42;11.77;;;4.40;99.90;;;;;;4994986;28;20027;-63
2024/03/03 06:17:03;;;;;;;18.42;10.02;;;4.30;99.90;;;;;;4993103;28;20037;-63
2024/03/03 06:19:48;;;;;;;19.67;10.07;;;4.30;99.90;;;;;;4996008;28;20030;-63
2024/03/03 06:22:34;;;;;;;20.60;10.80;;;4.30;99.90;;;;;;4996548;28;20048;-63
2024/03/03 06:25:20;;;;;;;17.88;9.20;;;4.40;99.90;;;;;;4989835;28;20045;-63
2024/03/03 06:28:06;;;;;;;17.15;9.98;;;4.40;99.90;;;;;;4995433;28;20034;-63
2024/03/03 06:30:53;;;;;;;18.58;10.07;;;4.40;99.90;;;;;;4991701;28;20087;-63
2024/03/03 06:33:39;;;;;;;;;;;4.50;99.90;;;;;;4999454;28;20038;-63
2024/03/03 06:36:25;;;;;;;18.17;9.40;;;4.50;99.90;;;;;;4991201;28;20386;-62
2024/03/03 06:39:12;;;;;;;17.17;9.30;;;4.50;99.90;;;;;;4997129;28;20037;-63
2024/03/03 06:41:58;;;;;;;21.98;10.95;;;4.60;99.90;;;;;;4993917;28;20107;-63
2024/03/03 06:44:44;;;;;;;15.52;9.23;;;4.50;99.90;;;;;;4997980;28;20222;-63
2024/03/03 06:47:32;;;;;;;19.00;10.03;;;4.60;99.90;;;;;;5000031;28;20125;-63
2024/03/03 06:50:17;;;;;;;24.10;13.75;;;4.60;99.90;;;;;;4992555;28;20034;-63
2024/03/03 06:53:04;;;;;;;20.63;12.00;;;4.90;99.90;;;;;;4994304;28;20030;-63
2024/03/03 06:55:50;;;;;;;21.30;11.63;;;5.00;99.90;;;;;;4987415;28;20041;-63
2024/03/03 06:58:36;;;;;;;24.42;11.55;;;5.30;99.90;;;;;;4997595;28;20050;-63
2024/03/03 07:01:22;;;;;;;23.55;12.40;;;5.50;99.90;;;;;;4992843;28;20054;-63
2024/03/03 07:04:26;;;;;;;24.00;11.48;;;6.00;99.90;;;;;;4992693;28;20053;-63
2024/03/03 07:07:12;;;;;;;20.65;12.05;;;6.50;99.90;;;;;;4993168;28;20491;-63
2024/03/03 07:09:58;;;;;;;21.25;11.05;;;6.90;99.90;;;;;;4988137;28;20023;-63
2024/03/03 07:12:44;;;;;;;20.58;11.57;;;7.10;99.90;;;;;;4995544;28;20034;-63
2024/03/03 07:15:30;;;;;;;20.90;11.18;;;7.20;99.90;;;;;;4988068;28;20048;-63
2024/03/03 07:18:16;;;;;;;18.40;10.98;;;7.20;99.90;;;;;;4995472;28;20069;-63
2024/03/03 07:21:02;;;;;;;18.83;10.70;;;7.30;99.90;;;;;;4984542;28;20034;-63
2024/03/03 07:23:48;;;;;;;16.77;10.63;;;7.50;99.90;;;;;;4991211;28;20285;-63
2024/03/03 07:26:34;;;;;;;15.77;8.98;;;7.70;99.90;;;;;;4993518;28;20331;-63
2024/03/03 07:29:20;;;;;;;17.10;10.35;;;7.90;99.90;;;;;;4996152;28;20034;-63
2024/03/03 07:32:06;;;;;;;17.33;9.88;;;8.20;99.90;;;;;;4994030;28;20076;-63
2024/03/03 07:34:52;;;;;;;17.25;10.68;;;8.40;99.90;;;;;;4991620;28;20037;-63
2024/03/03 07:37:37;;;;;;;15.85;9.40;;;8.30;99.90;;;;;;5002858;28;20179;-63
2024/03/03 07:40:23;;;;;;;18.30;10.30;;;8.60;99.90;;;;;;4984471;28;20641;-63
2024/03/03 07:43:09;;;;;;;15.95;9.65;;;8.80;99.90;;;;;;4988207;28;20058;-63
2024/03/03 07:45:55;;;;;;;17.15;8.93;;;8.80;99.90;;;;;;4991171;28;20042;-63
2024/03/03 07:48:41;;;;;;;18.70;10.57;;;8.70;99.90;;;;;;4999546;28;20088;-63
2024/03/03 07:51:27;;;;;;;16.58;10.02;;;8.70;99.90;;;;;;4991620;28;20070;-63
2024/03/03 07:54:13;;;;;;;17.25;9.75;;;8.80;99.90;;;;;;4999398;28;20041;-63
2024/03/03 07:56:59;;;;;;;15.07;9.88;;;8.60;99.90;;;;;;4994464;28;20040;-63
2024/03/03 07:59:45;;;;;;;18.92;10.07;;;8.70;99.90;;;;;;4991664;28;20046;-63
2024/03/03 08:02:31;;;;;;;16.73;10.13;;;8.90;99.90;;;;;;4994192;28;20499;-63
2024/03/03 08:05:17;;;;;;;17.63;9.50;;;9.10;99.90;;;;;;4991015;28;20326;-63
2024/03/03 08:08:04;;;;;;;14.25;8.63;;;9.50;99.90;;;;;;4999157;28;20137;-63
2024/03/03 08:10:50;;;;;;;18.35;9.55;;;10.20;99.90;;;;;;4993170;28;20056;-63
2024/03/03 08:13:36;;;;;;;14.07;9.00;;;10.40;99.90;;;;;;4999553;28;20064;-63
2024/03/03 08:16:21;;;;;;;17.70;9.65;;;10.60;99.90;;;;;;4994127;28;20050;-63
2024/03/03 08:19:07;;;;;;;15.50;9.68;;;10.50;99.90;;;;;;4995130;28;20026;-63
2024/03/03 08:21:54;;;;;;;20.25;10.68;;;10.40;99.90;;;;;;4997429;28;20601;-63
2024/03/03 08:24:41;;;;;;;13.93;8.57;;;10.10;99.90;;;;;;4985781;28;20537;-63
2024/03/03 08:27:27;;;;;;;18.08;9.63;;;10.20;99.90;;;;;;4995535;28;20672;-61
2024/03/03 08:30:14;;;;;;;17.10;9.38;;;10.30;99.90;;;;;;4991935;28;20034;-62
2024/03/03 08:33:00;;;;;;;21.27;9.80;;;10.00;99.90;;;;;;4997087;28;20025;-64
2024/03/03 08:35:46;;;;;;;16.88;9.23;;;9.70;99.90;;;;;;4996848;28;20030;-63
2024/03/03 08:38:34;;;;;;;15.70;9.80;;;9.50;99.90;;;;;;5000762;28;20026;-64
2024/03/03 08:41:19;;;;;;;18.95;10.35;;;9.30;99.90;;;;;;4996320;28;20030;-64
2024/03/03 08:44:06;;;;;;;15.93;9.80;;;9.20;99.90;;;;;;5001795;28;20112;-64
2024/03/03 08:46:52;;;;;;;18.33;10.65;;;9.20;99.90;;;;;;4995017;28;20477;-63
2024/03/03 08:49:38;;;;;;;18.15;10.40;;;9.10;99.90;;;;;;5003015;28;20037;-63
2024/03/03 08:52:24;;;;;;;18.75;9.98;;;8.90;99.90;;;;;;4998725;28;20088;-63
2024/03/03 08:55:09;;;;;;;16.88;10.05;;;8.90;99.90;;;;;;4991258;28;20027;-63
2024/03/03 08:57:55;;;;;;;21.85;10.77;;;8.90;99.90;;;;;;5003273;28;20037;-63
2024/03/03 09:00:41;;;;;;;20.20;11.05;;;8.90;99.90;;;;;;4989387;28;20037;-63
2024/03/03 09:03:27;;;;;;;19.90;10.75;;;8.80;99.90;;;;;;4998137;28;20042;-63
2024/03/03 09:06:13;;;;;;;19.95;10.73;;;8.70;99.90;;;;;;4995929;28;20099;-63
2024/03/03 09:08:59;;;;;;;18.33;10.43;;;8.70;99.90;;;;;;4995103;28;20124;-63
2024/03/03 09:11:47;;;;;;;16.65;10.18;;;8.70;99.90;;;;;;4994155;28;20120;-63
2024/03/03 09:14:33;;;;;;;16.00;9.60;;;8.80;99.90;;;;;;4998909;28;20446;-63
2024/03/03 09:17:19;;;;;;;14.88;9.27;;;8.80;99.90;;;;;;5001529;28;20037;-63
2024/03/03 09:20:05;;;;;;;21.13;9.83;;;8.90;99.90;;;;;;4991801;28;20046;-64
2024/03/03 09:22:51;;;;;;;17.10;8.57;;;9.00;99.90;;;;;;4984493;28;20029;-64
2024/03/03 09:25:40;;;;;;;16.60;9.82;;;9.10;99.90;;;;;;4992679;28;20038;-64
2024/03/03 09:28:26;;;;;;;19.95;9.57;;;9.20;99.90;;;;;;5000237;28;20040;-64
2024/03/03 09:31:14;;;;;;;17.25;8.77;;;9.30;99.90;;;;;;4986931;28;20034;-64
2024/03/03 09:34:00;;;;;;;17.15;10.40;;;9.40;99.90;;;;;;4996525;28;20033;-64
2024/03/03 09:36:46;;;;;;;19.35;9.38;;;9.70;99.90;;;;;;4989740;28;20511;-63
2024/03/03 09:39:31;;;;;;;17.52;10.27;;;9.90;99.90;;;;;;4999328;28;20133;-64
2024/03/03 09:42:17;;;;;;;16.40;10.07;;;10.30;99.90;;;;;;4994633;28;20026;-63
2024/03/03 09:45:10;;;;;;;14.02;9.20;;;10.60;99.90;;;;;;4989943;28;20527;-63
2024/03/03 09:47:59;;;;;;;16.67;9.25;;;10.90;99.90;;;;;;4991939;28;20045;-64
2024/03/03 09:50:45;;;;;;;16.88;9.40;;;11.00;99.90;;;;;;4984830;28;20495;-64
2024/03/03 09:53:33;;;;;;;17.90;11.48;;;11.10;99.90;;;;;;4987142;28;20042;-63
2024/03/03 09:56:21;;;;;;;15.95;9.32;;;11.00;99.90;;;;;;4994517;28;20041;-62
2024/03/03 09:59:07;;;;;;;18.08;9.40;;;10.90;99.90;;;;;;5001108;28;20044;-62
2024/03/03 10:01:56;;;;;;;15.27;8.75;;;11.20;99.90;;;;;;4994445;28;20053;-62
2024/03/03 10:04:47;;;;;;;16.45;8.82;;;11.40;99.90;;;;;;4996548;28;20034;-62
2024/03/03 10:07:45;;;;;;;17.58;10.15;;;11.40;99.90;;;;;;5000657;28;20029;-62
2024/03/03 10:10:35;;;;;;;16.42;9.32;;;11.30;99.90;;;;;;4990687;28;20122;-63
2024/03/03 10:13:21;;;;;;;16.77;9.35;;;11.20;99.90;;;;;;5000638;28;20034;-63
2024/03/03 10:16:08;;;;;;;11.95;7.90;;;11.30;99.90;;;;;;4989031;28;20120;-63
2024/03/03 10:19:01;;;;;;;15.27;9.48;;;11.60;99.90;;;;;;4995158;28;20091;-63
2024/03/03 10:21:50;;;;;;;17.05;9.93;;;11.90;99.90;;;;;;4996003;28;20030;-63
2024/03/03 10:24:36;;;;;;;16.58;11.00;;;11.90;99.90;;;;;;5000402;28;20038;-63
2024/03/03 10:27:22;;;;;;;16.10;10.35;;;11.70;99.90;;;;;;4992050;28;20403;-63
2024/03/03 10:30:09;;;;;;;16.60;9.60;;;11.60;99.90;;;;;;4995474;28;20117;-62
2024/03/03 10:33:04;;;;;;;16.40;10.00;;;11.60;99.90;;;;;;4997986;28;20117;-63
2024/03/03 10:36:06;;;;;;;18.05;10.05;;;11.70;99.90;;;;;;4995756;28;20614;-63
2024/03/03 10:38:53;;;;;;;18.15;9.95;;;11.60;99.90;;;;;;5002042;28;20030;-63
2024/03/03 10:41:39;;;;;;;17.45;8.18;;;11.60;99.90;;;;;;4992482;28;20072;-63
2024/03/03 10:44:25;;;;;;;17.02;9.80;;;11.80;99.90;;;;;;5000027;28;20523;-63
2024/03/03 10:47:13;;;;;;;12.98;8.20;;;11.80;99.90;;;;;;4997696;28;20578;-63
2024/03/03 10:49:59;;;;;;;11.98;7.53;;;11.80;99.90;;;;;;4990377;28;20057;-63
2024/03/03 10:52:49;;;;;;;14.75;8.07;;;11.80;99.90;;;;;;4997183;28;20049;-64
2024/03/03 10:55:36;;;;;;;14.48;7.57;;;11.90;99.90;;;;;;4993223;28;22866;-63
2024/03/03 10:58:23;;;;;;;16.20;6.90;;;12.00;99.90;;;;;;5000999;28;20506;-63
2024/03/03 11:01:09;;;;;;;;;;;12.30;99.90;;;;;;4992434;28;20069;-63
2024/03/03 11:03:55;;;;;;;19.90;8.48;;;12.40;99.90;;;;;;5000728;28;20004;-62
2024/03/03 11:06:42;;;;;;;10.13;6.23;;;12.60;99.90;;;;;;4985566;28;20451;-63
2024/03/03 11:09:28;;;;;;;10.32;6.25;;;12.70;99.90;;;;;;4989332;28;20287;-62
2024/03/03 11:12:19;;;;;;;11.48;7.57;;;12.70;99.90;;;;;;4985554;28;20722;-62
2024/03/03 11:15:11;;;;;;;15.98;7.40;;;12.70;99.90;;;;;;4987150;28;20043;-65
2024/03/03 11:18:03;;;;;;;10.50;6.35;;;12.70;99.90;;;;;;4994757;28;20029;-64
2024/03/03 11:20:53;;;;;;;9.80;5.88;;;12.80;99.90;;;;;;4992762;28;20487;-62
2024/03/03 11:23:51;;;;;;;9.65;6.15;;;13.00;99.90;;;;;;4995796;28;20778;-61
2024/03/03 11:26:43;;;;;;;12.70;6.43;;;13.20;99.90;;;;;;4992061;28;20042;-62
2024/03/03 11:29:31;;;;;;;11.32;6.22;;;13.30;99.90;;;;;;4997981;28;20117;-60
2024/03/03 11:32:19;;;;;;;10.85;5.85;;;13.40;99.90;;;;;;4994974;28;20049;-63
2024/03/03 11:35:06;;;;;;;7.95;5.22;;;13.20;99.90;;;;;;4995116;28;20641;-64
2024/03/03 11:37:52;;;;;;;7.93;5.20;;;13.10;99.90;;;;;;4979265;28;20033;-64
2024/03/03 11:40:41;;;;;;;8.48;5.13;;;13.20;99.90;;;;;;4993006;28;20045;-64
2024/03/03 11:43:26;;;;;;;8.30;5.05;;;13.40;99.90;;;;;;4985899;28;20041;-64
2024/03/03 11:46:44;;;;;;;10.00;5.07;;;13.20;99.90;;;;;;4989757;28;20393;-64
2024/03/03 11:49:31;;;;;;;9.25;5.47;;;13.30;99.90;;;;;;4993216;28;20025;-64
2024/03/03 11:52:35;;;;;;;;;;;13.30;99.90;;;;;;4990578;28;20455;-64
2024/03/03 11:55:27;;;;;;;9.43;5.32;;;13.40;99.90;;;;;;4992159;28;19913;-64
2024/03/03 11:58:17;;;;;;;8.65;4.28;;;13.60;99.90;;;;;;4998845;28;20046;-64
2024/03/03 12:01:09;;;;;;;8.98;4.85;;;13.80;99.90;;;;;;4983951;28;20046;-64
2024/03/03 12:03:59;;;;;;;6.63;4.35;;;13.80;99.00;;;;;;4993299;28;20041;-64
2024/03/03 12:06:45;;;;;;;11.43;5.05;;;13.80;99.90;;;;;;4989181;28;20038;-64
2024/03/03 12:09:32;;;;;;;11.93;5.03;;;13.90;99.90;;;;;;5000611;28;20061;-64
2024/03/03 12:12:18;;;;;;;8.20;4.78;;;14.00;99.90;;;;;;4992104;28;20031;-64
2024/03/03 12:15:05;;;;;;;10.23;4.85;;;14.00;99.90;;;;;;4995192;28;20031;-64
2024/03/03 12:17:52;;;;;;;7.97;4.18;;;14.00;98.50;;;;;;5015424;23;20053;-62
2024/03/03 12:20:40;;;;;;;9.00;3.90;;;14.00;97.60;;;;;;5008363;28;20038;-63
2024/03/03 12:23:28;;;;;;;8.23;5.25;;;14.00;98.10;;;;;;4997101;28;20057;-63
2024/03/03 12:26:14;;;;;;;6.72;4.53;;;14.00;99.80;;;;;;4988808;28;20573;-64
2024/03/03 12:29:00;;;;;;;11.85;5.50;;;13.90;99.90;;;;;;4977719;28;20030;-63
2024/03/03 12:31:46;;;;;;;10.23;5.57;;;14.00;99.90;;;;;;4984575;28;20053;-63
2024/03/03 12:34:32;;;;;;;9.03;5.93;;;13.80;99.90;;;;;;4984928;28;20041;-63
2024/03/03 12:37:19;;;;;;;7.30;4.90;;;13.70;99.90;;;;;;4976759;28;20062;-63
2024/03/03 12:40:06;;;;;;;7.80;5.25;;;13.60;99.90;;;;;;4976947;28;20508;-63
2024/03/03 12:42:52;;;;;;;9.35;4.57;;;13.60;99.90;;;;;;4984035;28;20413;-63
2024/03/03 12:45:43;;;;;;;6.35;4.65;;;13.50;98.20;;;;;;4984425;28;20092;-63
2024/03/03 12:48:29;;;;;;;10.23;4.65;;;13.50;99.90;;;;;;4984642;28;20046;-63
2024/03/03 12:51:15;;;;;;;7.78;5.03;;;13.50;99.60;;;;;;4984626;28;20848;-63
2024/03/03 12:54:01;;;;;;;9.32;5.05;;;13.50;98.80;;;;;;4977229;28;20039;-63
2024/03/03 12:56:47;;;;;;;8.07;4.75;;;13.50;98.20;;;;;;4986160;28;20034;-63
2024/03/03 12:59:33;;;;;;;7.78;4.97;;;13.50;98.80;;;;;;4977006;28;20052;-63
2024/03/03 13:02:20;;;;;;;8.00;4.57;;;13.50;97.90;;;;;;4982721;28;20034;-63
2024/03/03 13:05:13;;;;;;;;;;;13.50;98.30;;;;;;4983178;28;20031;-63
2024/03/03 13:07:59;;;;;;;10.75;4.63;;;13.50;98.10;;;;;;4977354;28;19913;-63
2024/03/03 13:10:45;;;;;;;8.20;4.70;;;13.50;98.30;;;;;;4986864;28;20041;-63
2024/03/03 13:13:31;;;;;;;7.67;5.33;;;13.50;97.80;;;;;;4986254;28;20136;-63
2024/03/03 13:16:17;;;;;;;8.57;4.88;;;13.50;98.80;;;;;;4979230;28;20039;-63
2024/03/03 13:19:03;;;;;;;11.32;5.97;;;13.50;98.90;;;;;;4977274;28;20038;-63
2024/03/03 13:22:00;;;;;;;11.00;5.70;;;13.50;99.10;;;;;;4983649;28;20034;-63
2024/03/03 13:25:01;;;;;;;9.15;5.80;;;13.40;99.30;;;;;;4983091;28;21707;-63
2024/03/03 13:27:47;;;;;;;9.98;5.78;;;13.40;99.50;;;;;;4975121;28;20076;-63
2024/03/03 13:30:34;;;;;;;11.30;5.65;;;13.40;98.40;;;;;;4985259;28;20132;-63
2024/03/03 13:33:20;;;;;;;11.27;6.13;;;13.50;99.10;;;;;;4997656;28;20030;-63
2024/03/03 13:36:08;;;;;;;9.43;5.55;;;13.40;98.60;;;;;;5001259;28;20026;-63
2024/03/03 13:38:54;;;;;;;9.68;5.90;;;13.30;98.40;;;;;;4993952;28;20034;-63
2024/03/03 13:41:40;;;;;;;10.15;6.28;;;13.40;98.90;;;;;;4999892;28;20042;-63
2024/03/03 13:44:26;;;;;;;10.25;5.57;;;13.40;98.60;;;;;;5001797;28;20478;-63
2024/03/03 13:47:15;;;;;;;11.10;6.10;;;13.40;98.80;;;;;;5001316;28;20041;-63
2024/03/03 13:50:01;;;;;;;11.02;6.00;;;13.40;99.50;;;;;;4994890;28;20030;-64
2024/03/03 13:52:47;;;;;;;13.38;6.38;;;13.40;99.90;;;;;;5003086;28;20022;-63
2024/03/03 13:55:33;;;;;;;9.57;5.93;;;13.40;98.80;;;;;;4994723;28;20561;-63
2024/03/03 13:58:19;;;;;;;10.82;6.20;;;13.30;99.20;;;;;;4999312;28;20487;-63
2024/03/03 14:01:08;;;;;;;11.30;6.77;;;13.40;99.90;;;;;;5001186;28;20041;-63
2024/03/03 14:03:54;;;;;;;14.38;6.72;;;13.30;99.20;;;;;;4993866;28;20304;-63
2024/03/03 14:06:40;;;;;;;12.00;7.38;;;13.20;99.80;;;;;;5004537;28;20046;-63
2024/03/03 14:09:26;;;;;;;10.82;6.68;;;13.30;99.90;;;;;;4999617;28;20082;-63
2024/03/03 14:12:12;;;;;;;11.27;7.25;;;13.20;99.90;;;;;;4995597;28;20060;-64
2024/03/03 14:14:58;;;;;;;12.15;7.30;;;13.10;99.90;;;;;;5002908;28;20029;-63
2024/03/03 14:17:45;;;;;;;13.07;6.65;;;13.10;99.90;;;;;;5004174;28;20140;-63
2024/03/03 14:20:32;;;;;;;10.60;5.18;;;13.10;99.90;;;;;;4992822;28;20033;-63
2024/03/03 14:23:18;;;;;;;11.48;6.13;;;13.10;99.20;;;;;;5001804;28;20030;-63